createdAt,value
2023-03-21T00:01:53.427Z,16.70
2023-03-21T00:04:22.080Z,16.70
2023-03-21T00:06:49.232Z,16.70
2023-03-21T00:09:16.782Z,16.90
2023-03-21T00:11:44.375Z,16.80
2023-03-21T00:14:14.373Z,16.70
2023-03-21T00:16:42.120Z,16.80
2023-03-21T00:19:10.330Z,16.80
2023-03-21T00:21:55.670Z,16.80
2023-03-21T00:24:25.767Z,16.80
2023-03-21T00:26:53.678Z,16.80
2023-03-21T00:29:20.937Z,16.70
2023-03-21T00:31:48.138Z,16.80
2023-03-21T00:34:15.424Z,16.80
2023-03-21T00:36:42.878Z,16.80
2023-03-21T00:39:10.862Z,16.80
2023-03-21T00:41:43.166Z,16.80
2023-03-21T00:44:13.572Z,16.80
2023-03-21T00:46:57.041Z,16.80
2023-03-21T00:49:27.909Z,16.80
2023-03-21T00:51:57.294Z,16.80
2023-03-21T00:54:26.988Z,16.60
2023-03-21T00:56:54.086Z,16.80
2023-03-21T00:59:21.141Z,16.90
2023-03-21T01:01:48.257Z,16.90
2023-03-21T01:04:16.636Z,16.80
2023-03-21T01:06:44.826Z,16.60
2023-03-21T01:09:17.078Z,16.90
2023-03-21T01:11:45.106Z,16.90
2023-03-21T01:14:22.574Z,16.80
2023-03-21T01:16:52.922Z,17.00
2023-03-21T01:19:29.069Z,16.30
2023-03-21T01:21:58.497Z,16.70
2023-03-21T01:24:25.687Z,16.70
2023-03-21T01:26:52.787Z,16.80
2023-03-21T01:29:19.853Z,16.50
2023-03-21T01:31:47.155Z,16.60
2023-03-21T01:34:14.635Z,16.40
2023-03-21T01:36:41.755Z,16.60
2023-03-21T01:39:08.881Z,16.70
2023-03-21T01:41:44.078Z,16.70
2023-03-21T01:44:17.706Z,16.70
2023-03-21T01:47:00.460Z,16.70
2023-03-21T01:49:39.119Z,17.20
2023-03-21T01:52:21.110Z,16.80
2023-03-21T01:54:55.990Z,16.80
2023-03-21T01:57:40.405Z,16.80
2023-03-21T02:00:12.369Z,16.70
2023-03-21T02:02:52.159Z,16.70
2023-03-21T02:05:44.112Z,16.70
2023-03-21T02:08:13.129Z,16.70
2023-03-21T02:10:43.963Z,16.70
2023-03-21T02:13:11.519Z,16.70
2023-03-21T02:15:42.032Z,16.70
2023-03-21T02:18:34.369Z,16.70
2023-03-21T02:21:18.630Z,16.70
2023-03-21T02:24:20.754Z,16.70
2023-03-21T02:27:08.858Z,16.70
2023-03-21T02:29:38.706Z,16.60
2023-03-21T02:32:37.440Z,16.60
2023-03-21T02:35:19.992Z,16.70
2023-03-21T02:38:03.491Z,16.60
2023-03-21T02:40:45.355Z,17.30
2023-03-21T02:43:35.184Z,16.60
2023-03-21T02:46:10.299Z,16.70
2023-03-21T02:48:50.635Z,16.80
2023-03-21T02:51:22.037Z,16.80
2023-03-21T02:54:29.991Z,16.80
2023-03-21T02:56:53.429Z,16.80
2023-03-21T02:59:23.568Z,16.70
2023-03-21T03:01:52.726Z,16.80
2023-03-21T03:04:26.608Z,16.80
2023-03-21T03:07:06.042Z,16.80
2023-03-21T03:09:54.731Z,16.80
2023-03-21T03:12:50.878Z,16.80
2023-03-21T03:15:21.999Z,16.80
2023-03-21T03:18:12.665Z,17.60
2023-03-21T03:21:04.621Z,16.80
2023-03-21T03:23:46.212Z,16.90
2023-03-21T03:26:18.881Z,16.80
2023-03-21T03:28:53.139Z,16.60
2023-03-21T03:31:31.452Z,16.80
2023-03-21T03:34:03.725Z,16.70
2023-03-21T03:36:35.645Z,16.10
2023-03-21T03:39:05.474Z,16.20
2023-03-21T03:42:02.917Z,16.60
2023-03-21T03:44:25.965Z,16.60
2023-03-21T03:47:35.050Z,16.70
2023-03-21T03:50:37.048Z,16.60
2023-03-21T03:53:20.242Z,16.60
2023-03-21T03:55:48.596Z,16.70
2023-03-21T03:58:24.051Z,16.70
2023-03-21T04:00:55.155Z,17.10
2023-03-21T04:03:22.603Z,16.60
2023-03-21T04:05:50.252Z,16.80
2023-03-21T04:08:17.560Z,16.70
2023-03-21T04:10:44.852Z,16.80
2023-03-21T04:13:11.924Z,16.80
2023-03-21T04:15:38.995Z,16.70
2023-03-21T04:18:06.093Z,16.70
2023-03-21T04:20:37.231Z,17.00
2023-03-21T04:23:05.901Z,16.90
2023-03-21T04:25:38.671Z,16.80
2023-03-21T04:28:07.603Z,16.80
2023-03-21T04:30:34.639Z,16.80
2023-03-21T04:33:01.729Z,16.80
2023-03-21T04:35:29.251Z,16.70
2023-03-21T04:37:56.535Z,16.70
2023-03-21T04:40:25.148Z,16.60
2023-03-21T04:42:52.733Z,16.60
2023-03-21T04:45:19.851Z,16.60
2023-03-21T04:47:46.982Z,16.70
2023-03-21T04:50:14.144Z,17.40
2023-03-21T04:52:41.229Z,16.80
2023-03-21T04:55:10.113Z,16.90
2023-03-21T04:57:38.275Z,16.90
2023-03-21T05:00:11.177Z,17.10
2023-03-21T05:02:38.760Z,16.90
2023-03-21T05:05:06.977Z,16.90
2023-03-21T05:07:34.062Z,16.90
2023-03-21T05:10:02.562Z,17.10
2023-03-21T05:12:29.879Z,16.90
2023-03-21T05:14:56.945Z,17.80
2023-03-21T05:17:24.852Z,16.90
2023-03-21T05:19:52.857Z,16.90
2023-03-21T05:22:20.516Z,16.80
2023-03-21T05:24:50.739Z,15.90
2023-03-21T05:27:34.041Z,16.70
2023-03-21T05:30:03.792Z,16.80
2023-03-21T05:32:31.018Z,16.70
2023-03-21T05:34:58.169Z,16.80
2023-03-21T05:37:25.339Z,16.70
2023-03-21T05:39:52.637Z,16.70
2023-03-21T05:42:20.574Z,16.70
2023-03-21T05:44:47.671Z,16.70
2023-03-21T05:47:16.122Z,17.10
2023-03-21T05:49:43.975Z,16.80
2023-03-21T05:52:11.284Z,16.80
2023-03-21T05:54:38.527Z,16.80
2023-03-21T05:57:05.981Z,16.80
2023-03-21T05:59:33.426Z,16.80
2023-03-21T06:02:00.632Z,16.80
2023-03-21T06:04:27.806Z,16.80
2023-03-21T06:06:55.299Z,16.70
2023-03-21T06:09:23.284Z,17.30
2023-03-21T06:11:53.310Z,16.80
2023-03-21T06:14:21.060Z,16.80
2023-03-21T06:16:48.160Z,17.20
2023-03-21T06:19:15.600Z,16.80
2023-03-21T06:21:42.795Z,16.80
2023-03-21T06:24:10.325Z,16.80
2023-03-21T06:26:37.473Z,16.80
2023-03-21T06:29:05.461Z,16.80
2023-03-21T06:31:32.558Z,16.80
2023-03-21T06:33:59.629Z,16.80
2023-03-21T06:36:26.730Z,16.80
2023-03-21T06:38:53.836Z,16.80
2023-03-21T06:41:22.733Z,16.80
2023-03-21T06:43:49.837Z,17.40
2023-03-21T06:46:16.977Z,16.80
2023-03-21T06:48:46.965Z,16.80
2023-03-21T06:51:15.530Z,16.20
2023-03-21T06:53:43.284Z,16.90
2023-03-21T06:56:11.555Z,16.80
2023-03-21T06:58:39.039Z,16.80
2023-03-21T07:01:06.986Z,16.80
2023-03-21T07:03:34.953Z,16.80
2023-03-21T07:06:11.721Z,16.90
2023-03-21T07:08:39.747Z,16.90
2023-03-21T07:11:07.373Z,16.90
2023-03-21T07:13:34.496Z,16.80
2023-03-21T07:16:01.690Z,16.80
2023-03-21T07:18:28.846Z,16.80
2023-03-21T07:20:55.921Z,16.60
2023-03-21T07:23:25.674Z,16.90
2023-03-21T07:25:53.245Z,16.80
2023-03-21T07:28:21.437Z,16.80
2023-03-21T07:30:56.803Z,16.60
2023-03-21T07:33:25.221Z,16.80
2023-03-21T07:35:54.193Z,16.90
2023-03-21T07:38:21.535Z,16.80
2023-03-21T07:40:49.030Z,16.80
2023-03-21T07:45:49.314Z,16.80
2023-03-21T07:48:17.990Z,16.80
2023-03-21T07:50:45.121Z,16.80
2023-03-21T07:53:12.229Z,16.90
2023-03-21T07:55:39.668Z,16.90
2023-03-21T07:58:07.094Z,16.90
2023-03-21T08:00:34.209Z,16.90
2023-03-21T08:03:01.633Z,16.90
2023-03-21T08:05:33.186Z,16.50
2023-03-21T08:08:01.093Z,16.90
2023-03-21T08:10:28.388Z,16.90
2023-03-21T08:12:55.645Z,16.90
2023-03-21T08:15:22.905Z,17.20
2023-03-21T08:17:50.147Z,16.90
2023-03-21T08:20:21.267Z,16.50
2023-03-21T08:22:49.537Z,16.90
2023-03-21T08:25:19.310Z,17.60
2023-03-21T08:27:46.809Z,16.90
2023-03-21T08:30:17.153Z,16.90
2023-03-21T08:32:44.319Z,16.90
2023-03-21T08:35:13.451Z,16.80
2023-03-21T08:37:41.585Z,16.80
2023-03-21T08:40:15.518Z,16.70
2023-03-21T08:42:44.168Z,16.80
2023-03-21T08:45:12.585Z,16.30
2023-03-21T08:47:39.808Z,17.00
2023-03-21T08:50:09.019Z,16.90
2023-03-21T08:52:37.117Z,16.90
2023-03-21T08:55:04.964Z,16.90
2023-03-21T08:57:32.177Z,16.90
2023-03-21T08:59:59.241Z,17.00
2023-03-21T09:02:26.925Z,17.80
2023-03-21T09:04:54.811Z,16.90
2023-03-21T09:07:22.138Z,16.90
2023-03-21T09:10:08.144Z,16.90
2023-03-21T09:12:41.016Z,16.90
2023-03-21T09:15:10.052Z,16.90
2023-03-21T09:17:39.498Z,16.90
2023-03-21T09:20:11.205Z,16.90
2023-03-21T09:22:42.840Z,16.90
2023-03-21T09:25:11.459Z,16.90
2023-03-21T09:27:38.709Z,16.90
2023-03-21T09:30:07.425Z,16.70
2023-03-21T09:32:35.123Z,16.40
2023-03-21T09:35:07.890Z,16.30
2023-03-21T09:37:42.249Z,16.20
2023-03-21T09:40:16.021Z,16.20
2023-03-21T09:43:06.858Z,16.30
2023-03-21T09:45:45.911Z,16.00
2023-03-21T09:48:30.220Z,16.50
2023-03-21T09:50:58.392Z,16.50
2023-03-21T09:53:32.471Z,16.60
2023-03-21T09:56:02.397Z,16.70
2023-03-21T09:58:52.844Z,17.40
2023-03-21T10:01:41.418Z,17.00
2023-03-21T10:04:13.180Z,16.80
2023-03-21T10:06:42.625Z,16.80
2023-03-21T10:09:21.300Z,16.90
2023-03-21T10:11:53.141Z,16.90
2023-03-21T10:14:37.441Z,16.70
2023-03-21T10:17:25.928Z,16.40
2023-03-21T10:20:12.008Z,16.10
2023-03-21T10:22:40.226Z,15.80
2023-03-21T10:25:12.212Z,15.50
2023-03-21T10:27:39.458Z,15.30
2023-03-21T10:30:08.472Z,15.40
2023-03-21T10:32:35.796Z,15.30
2023-03-21T10:35:04.961Z,15.30
2023-03-21T10:37:32.491Z,15.50
2023-03-21T10:39:59.749Z,15.70
2023-03-21T10:42:29.621Z,16.00
2023-03-21T10:44:57.746Z,16.00
2023-03-21T10:47:28.106Z,16.10
2023-03-21T10:50:11.265Z,16.20
2023-03-21T10:52:46.156Z,16.20
2023-03-21T10:55:31.968Z,16.20
2023-03-21T10:58:18.749Z,15.80
2023-03-21T11:00:47.435Z,16.50
2023-03-21T11:03:31.275Z,16.90
2023-03-21T11:06:23.051Z,16.30
2023-03-21T11:09:00.984Z,16.50
2023-03-21T11:11:37.834Z,16.70
2023-03-21T11:14:09.117Z,16.30
2023-03-21T11:16:39.725Z,16.40
2023-03-21T11:19:17.216Z,16.40
2023-03-21T11:21:45.166Z,16.40
2023-03-21T11:24:15.810Z,16.40
2023-03-21T11:26:45.278Z,16.30
2023-03-21T11:29:41.130Z,16.40
2023-03-21T11:32:27.029Z,16.30
2023-03-21T11:35:00.963Z,16.40
2023-03-21T11:37:31.960Z,15.80
2023-03-21T11:40:23.070Z,16.40
2023-03-21T11:42:58.520Z,16.30
2023-03-21T11:45:36.183Z,16.00
2023-03-21T11:48:13.999Z,16.30
2023-03-21T11:50:47.356Z,16.80
2023-03-21T11:53:14.392Z,16.30
2023-03-21T11:55:56.869Z,16.30
2023-03-21T11:58:45.008Z,16.40
2023-03-21T12:01:15.171Z,16.10
2023-03-21T12:03:55.260Z,16.40
2023-03-21T12:06:36.881Z,16.40
2023-03-21T12:09:29.283Z,16.40
2023-03-21T12:12:15.291Z,16.40
2023-03-21T12:14:53.768Z,16.40
2023-03-21T12:17:35.775Z,16.40
2023-03-21T12:20:40.173Z,16.40
2023-03-21T12:23:18.889Z,16.30
2023-03-21T12:25:56.609Z,16.40
2023-03-21T12:28:39.051Z,16.40
2023-03-21T12:31:18.242Z,16.40
2023-03-21T12:34:17.440Z,16.40
2023-03-21T12:36:53.680Z,16.40
2023-03-21T12:39:34.927Z,16.40
2023-03-21T12:42:40.917Z,16.40
2023-03-21T12:45:37.361Z,16.40
2023-03-21T12:48:47.322Z,16.40
2023-03-21T12:51:22.683Z,16.50
2023-03-21T12:54:23.519Z,16.50
2023-03-21T12:56:59.023Z,16.50
2023-03-21T12:59:38.150Z,16.50
2023-03-21T13:02:18.014Z,16.50
2023-03-21T13:05:17.976Z,16.50
2023-03-21T13:07:52.315Z,16.50
2023-03-21T13:10:21.241Z,16.50
2023-03-21T13:13:09.752Z,16.70
2023-03-21T13:16:06.198Z,16.30
2023-03-21T13:19:10.997Z,16.50
2023-03-21T13:22:13.766Z,16.60
2023-03-21T13:24:48.970Z,16.60
2023-03-21T13:27:32.241Z,16.50
2023-03-21T13:30:14.608Z,16.60
2023-03-21T13:32:48.281Z,16.60
2023-03-21T13:35:28.911Z,16.30
2023-03-21T13:38:12.692Z,16.70
2023-03-21T13:41:09.497Z,16.60
2023-03-21T13:43:45.597Z,16.60
2023-03-21T13:46:13.781Z,16.60
2023-03-21T13:48:57.759Z,16.60
2023-03-21T13:51:28.469Z,16.60
2023-03-21T13:54:03.276Z,15.40
2023-03-21T13:56:56.665Z,16.30
2023-03-21T13:59:43.680Z,16.60
2023-03-21T14:02:33.985Z,16.50
2023-03-21T14:05:07.541Z,16.60
2023-03-21T14:07:40.970Z,16.50
2023-03-21T14:10:37.047Z,16.60
2023-03-21T14:13:10.601Z,16.50
2023-03-21T14:15:55.324Z,16.60
2023-03-21T14:18:35.375Z,16.60
2023-03-21T14:21:23.663Z,16.60
2023-03-21T14:23:58.351Z,16.60
2023-03-21T14:26:29.022Z,16.60
2023-03-21T14:28:56.218Z,16.60
2023-03-21T14:31:23.810Z,16.60
2023-03-21T14:33:54.028Z,16.60
2023-03-21T14:36:25.587Z,16.60
2023-03-21T14:39:15.975Z,16.70
2023-03-21T14:41:49.636Z,16.60
2023-03-21T14:44:27.917Z,16.60
2023-03-21T14:47:19.690Z,16.60
2023-03-21T14:49:48.568Z,16.60
2023-03-21T14:52:31.915Z,16.60
2023-03-21T14:55:00.741Z,16.60
2023-03-21T14:57:32.191Z,16.50
2023-03-21T15:00:10.544Z,16.50
2023-03-21T15:02:41.303Z,16.50
2023-03-21T15:05:30.752Z,16.50
2023-03-21T15:08:08.240Z,16.50
2023-03-21T15:10:35.527Z,16.50
2023-03-21T15:13:17.976Z,16.40
2023-03-21T15:15:46.307Z,16.40
2023-03-21T15:18:18.328Z,16.70
2023-03-21T15:20:48.248Z,16.40
2023-03-21T15:23:24.436Z,16.40
2023-03-21T15:25:52.370Z,16.50
2023-03-21T15:28:19.569Z,16.40
2023-03-21T15:30:50.284Z,16.60
2023-03-21T15:33:18.985Z,16.40
2023-03-21T15:35:54.046Z,16.40
2023-03-21T15:38:36.695Z,16.50
2023-03-21T15:41:24.879Z,16.40
2023-03-21T15:44:14.150Z,16.40
2023-03-21T15:46:46.291Z,16.40
2023-03-21T15:49:13.386Z,16.40
2023-03-21T15:51:52.102Z,16.40
2023-03-21T15:54:28.919Z,16.40
2023-03-21T15:57:04.776Z,16.90
2023-03-21T15:59:42.288Z,16.30
2023-03-21T16:02:17.740Z,16.40
2023-03-21T16:05:03.041Z,16.30
2023-03-21T16:07:35.079Z,15.60
2023-03-21T16:10:04.495Z,16.30
2023-03-21T16:12:31.658Z,16.30
2023-03-21T16:14:58.911Z,16.30
2023-03-21T16:17:35.498Z,16.10
2023-03-21T16:20:02.999Z,16.30
2023-03-21T16:22:34.693Z,16.30
2023-03-21T16:25:01.916Z,16.70
2023-03-21T16:27:28.992Z,16.30
2023-03-21T16:29:56.093Z,16.40
2023-03-21T16:32:23.808Z,16.40
2023-03-21T16:34:53.475Z,16.40
2023-03-21T16:37:21.429Z,16.20
2023-03-21T16:39:48.520Z,16.40
2023-03-21T16:42:15.583Z,16.20
2023-03-21T16:44:42.632Z,16.30
2023-03-21T16:47:20.725Z,16.20
2023-03-21T16:49:47.806Z,16.00
2023-03-21T16:52:15.641Z,16.10
2023-03-21T16:54:43.138Z,16.10
2023-03-21T16:57:29.044Z,16.10
2023-03-21T16:59:56.471Z,16.20
2023-03-21T17:02:24.844Z,16.00
2023-03-21T17:04:51.983Z,16.00
2023-03-21T17:07:19.185Z,16.10
2023-03-21T17:09:47.957Z,16.00
2023-03-21T17:12:16.243Z,16.00
2023-03-21T17:14:44.770Z,16.00
2023-03-21T17:17:13.757Z,16.00
2023-03-21T17:19:40.992Z,16.40
2023-03-21T17:22:08.274Z,16.20
2023-03-21T17:24:36.625Z,16.20
2023-03-21T17:27:04.829Z,16.20
2023-03-21T17:29:31.935Z,16.20
2023-03-21T17:31:59.053Z,16.30
2023-03-21T17:34:26.305Z,16.30
2023-03-21T17:36:53.388Z,16.30
2023-03-21T17:39:26.520Z,16.30
2023-03-21T17:41:54.361Z,16.30
2023-03-21T17:44:21.602Z,16.40
2023-03-21T17:46:51.715Z,17.00
2023-03-21T17:49:19.851Z,16.60
2023-03-21T17:51:47.073Z,16.60
2023-03-21T17:54:14.375Z,16.70
2023-03-21T17:56:41.942Z,16.70
2023-03-21T17:59:12.923Z,16.80
2023-03-21T18:01:41.382Z,16.70
2023-03-21T18:04:08.614Z,16.00
2023-03-21T18:06:37.167Z,16.70
2023-03-21T18:09:11.005Z,16.80
2023-03-21T18:11:39.237Z,16.90
2023-03-21T18:14:15.967Z,16.80
2023-03-21T18:16:45.366Z,16.90
2023-03-21T18:19:13.176Z,17.10
2023-03-21T18:21:41.066Z,16.90
2023-03-21T18:24:08.680Z,17.10
2023-03-21T18:26:35.871Z,17.20
2023-03-21T18:29:57.255Z,16.90
2023-03-21T18:32:04.782Z,16.90
2023-03-21T18:34:33.963Z,16.60
2023-03-21T18:37:04.001Z,16.30
2023-03-21T18:39:33.080Z,16.90
2023-03-21T18:42:02.516Z,16.90
2023-03-21T18:44:31.350Z,17.10
2023-03-21T18:46:58.732Z,16.80
2023-03-21T18:52:12.955Z,16.80
2023-03-21T18:54:40.443Z,16.90
2023-03-21T18:59:56.613Z,17.00
2023-03-21T19:02:23.678Z,16.90
2023-03-21T19:04:51.096Z,16.80
2023-03-21T19:07:18.225Z,16.90
2023-03-21T19:10:13.935Z,16.90
2023-03-21T19:12:32.425Z,17.50
2023-03-21T19:14:59.490Z,16.90
2023-03-21T19:18:20.666Z,16.90
2023-03-21T19:20:16.311Z,16.90
2023-03-21T19:22:43.633Z,16.80
2023-03-21T19:25:11.558Z,16.90
2023-03-21T19:27:39.802Z,16.90
2023-03-21T19:30:16.755Z,16.90
2023-03-21T19:32:44.770Z,16.80
2023-03-21T19:35:12.454Z,17.00
2023-03-21T19:37:39.536Z,16.90
2023-03-21T19:40:07.476Z,17.70
2023-03-21T19:42:36.238Z,16.90
2023-03-21T19:45:04.837Z,16.90
2023-03-21T19:47:31.947Z,17.00
2023-03-21T19:52:46.087Z,17.00
2023-03-21T19:55:14.778Z,17.00
2023-03-21T19:57:41.927Z,17.00
2023-03-21T20:00:11.431Z,17.00
2023-03-21T20:02:38.857Z,17.00
2023-03-21T20:05:06.909Z,17.60
2023-03-21T20:07:34.023Z,16.90
2023-03-21T20:10:01.325Z,17.00
2023-03-21T20:12:28.688Z,16.60
2023-03-21T20:15:15.829Z,16.90
2023-03-21T20:17:43.864Z,16.90
2023-03-21T20:20:15.209Z,17.00
2023-03-21T20:23:05.714Z,16.60
2023-03-21T20:25:31.111Z,16.80
2023-03-21T20:28:14.504Z,16.90
2023-03-21T20:30:47.620Z,16.60
2023-03-21T20:33:15.198Z,16.90
2023-03-21T20:38:30.891Z,17.10
2023-03-21T20:40:59.039Z,17.00
2023-03-21T20:46:16.027Z,16.90
2023-03-21T20:48:43.227Z,16.90
2023-03-21T20:52:14.673Z,16.90
2023-03-21T20:53:59.313Z,16.90
2023-03-21T20:56:26.489Z,16.90
2023-03-21T20:59:04.846Z,16.90
2023-03-21T21:01:42.393Z,16.90
2023-03-21T21:04:09.669Z,16.90
2023-03-21T21:06:36.884Z,17.00
2023-03-21T21:09:04.294Z,17.50
2023-03-21T21:14:18.858Z,17.00
2023-03-21T21:16:48.063Z,17.00
2023-03-21T21:19:18.660Z,17.00
2023-03-21T21:21:46.008Z,17.00
2023-03-21T21:24:14.562Z,17.00
2023-03-21T21:26:45.961Z,17.00
2023-03-21T21:29:16.958Z,17.00
2023-03-21T21:31:51.281Z,17.00
2023-03-21T21:34:19.739Z,17.00
2023-03-21T21:36:47.340Z,17.00
2023-03-21T21:39:15.769Z,17.10
2023-03-21T21:41:43.112Z,17.00
2023-03-21T21:44:10.976Z,17.00
2023-03-21T21:46:38.625Z,17.10
2023-03-21T21:49:05.794Z,17.00
2023-03-21T21:51:34.016Z,17.60
2023-03-21T21:54:03.762Z,17.00
2023-03-21T21:56:38.401Z,17.00
2023-03-21T21:59:05.713Z,17.00
2023-03-21T22:01:38.434Z,17.00
2023-03-21T22:04:10.683Z,17.00
2023-03-21T22:06:38.042Z,16.40
2023-03-21T22:09:06.877Z,17.00
2023-03-21T22:11:33.971Z,17.20
2023-03-21T22:14:01.040Z,17.00
2023-03-21T22:16:28.385Z,16.90
2023-03-21T22:18:55.665Z,16.90
2023-03-21T22:21:22.953Z,16.90
2023-03-21T22:23:50.241Z,16.90
2023-03-21T22:26:17.421Z,16.90
2023-03-21T22:28:44.608Z,16.90
2023-03-21T22:31:16.451Z,16.90
2023-03-21T22:33:44.636Z,16.90
2023-03-21T22:36:12.132Z,16.70
2023-03-21T22:38:41.701Z,17.00
2023-03-21T22:41:08.826Z,16.90
2023-03-21T22:43:36.116Z,16.90
2023-03-21T22:46:04.182Z,16.90
2023-03-21T22:48:32.008Z,17.00
2023-03-21T22:51:00.413Z,18.30
2023-03-21T22:53:28.058Z,16.90
2023-03-21T22:55:55.527Z,16.90
2023-03-21T22:58:22.933Z,16.90
2023-03-21T23:00:50.248Z,17.00
2023-03-21T23:03:17.577Z,16.90
2023-03-21T23:05:45.314Z,16.90
2023-03-21T23:08:12.945Z,16.90
2023-03-21T23:10:43.257Z,16.90
2023-03-21T23:13:10.579Z,16.90
2023-03-21T23:15:40.545Z,16.90
2023-03-21T23:18:07.900Z,17.00
2023-03-21T23:20:35.311Z,17.00
2023-03-21T23:23:02.479Z,17.10
2023-03-21T23:25:30.250Z,16.90
2023-03-21T23:27:57.391Z,17.00
2023-03-21T23:30:24.645Z,16.90
2023-03-21T23:32:52.171Z,17.00
2023-03-21T23:35:19.553Z,17.00
2023-03-21T23:37:51.873Z,17.20
2023-03-21T23:40:20.309Z,16.90
2023-03-21T23:42:47.395Z,16.90
2023-03-21T23:45:14.536Z,16.90
2023-03-21T23:47:41.659Z,16.90
2023-03-21T23:50:09.914Z,16.90
2023-03-21T23:52:38.045Z,16.90
2023-03-21T23:55:06.983Z,17.00
2023-03-21T23:57:34.243Z,16.90
